sensor_id;sensor_type;location;lat;lon;timestamp;pressure;altitude;pressure_sealevel;temperature;humidity
61961;BME280;47923;42.506;24.192;2023-04-29T00:01:28;95487.66;;;0.83;78.94
61961;BME280;47923;42.506;24.192;2023-04-29T00:03:54;95603.38;;;1.55;79.76
61961;BME280;47923;42.506;24.192;2023-04-29T00:06:19;95669.63;;;1.98;80.39
61961;BME280;47923;42.506;24.192;2023-04-29T00:08:45;95682.94;;;1.98;80.91
61961;BME280;47923;42.506;24.192;2023-04-29T00:11:11;95682.69;;;1.85;81.60
61961;BME280;47923;42.506;24.192;2023-04-29T00:13:37;95676.66;;;1.80;80.90
61961;BME280;47923;42.506;24.192;2023-04-29T00:16:05;95399.84;;;0.01;81.35
61961;BME280;47923;42.506;24.192;2023-04-29T00:18:31;95685.44;;;1.80;82.06
61961;BME280;47923;42.506;24.192;2023-04-29T00:20:58;95679.94;;;1.77;82.16
61961;BME280;47923;42.506;24.192;2023-04-29T00:23:23;95683.78;;;1.71;82.79
61961;BME280;47923;42.506;24.192;2023-04-29T00:25:49;95403.75;;;-0.43;82.38
61961;BME280;47923;42.506;24.192;2023-04-29T00:28:16;95683.69;;;1.62;83.01
61961;BME280;47923;42.506;24.192;2023-04-29T00:30:41;95687.69;;;1.59;83.28
61961;BME280;47923;42.506;24.192;2023-04-29T00:33:09;95677.66;;;1.56;83.54
61961;BME280;47923;42.506;24.192;2023-04-29T00:35:37;95700.91;;;1.51;83.57
61961;BME280;47923;42.506;24.192;2023-04-29T00:38:03;95677.34;;;1.44;82.65
61961;BME280;47923;42.506;24.192;2023-04-29T00:40:28;95258.22;;;-1.20;82.86
61961;BME280;47923;42.506;24.192;2023-04-29T00:42:54;95413.47;;;-0.19;83.48
61961;BME280;47923;42.506;24.192;2023-04-29T00:45:19;95644.38;;;1.26;83.17
61961;BME280;47923;42.506;24.192;2023-04-29T00:47:45;95678.41;;;1.43;83.66
61961;BME280;47923;42.506;24.192;2023-04-29T00:50:11;95674.06;;;1.33;83.71
61961;BME280;47923;42.506;24.192;2023-04-29T00:52:37;95585.25;;;0.69;84.46
61961;BME280;47923;42.506;24.192;2023-04-29T00:55:05;95556.81;;;0.37;84.18
61961;BME280;47923;42.506;24.192;2023-04-29T00:57:32;95398.16;;;-0.60;84.50
61961;BME280;47923;42.506;24.192;2023-04-29T00:59:59;95430.13;;;-0.33;82.79
61961;BME280;47923;42.506;24.192;2023-04-29T01:02:24;95273.13;;;-1.43;81.37
61961;BME280;47923;42.506;24.192;2023-04-29T01:04:51;95286.22;;;-1.32;82.40
61961;BME280;47923;42.506;24.192;2023-04-29T01:10:09;95661.59;;;1.15;83.25
61961;BME280;47923;42.506;24.192;2023-04-29T01:12:49;95636.91;;;0.82;84.21
61961;BME280;47923;42.506;24.192;2023-04-29T01:15:27;95657.53;;;0.90;84.44
61961;BME280;47923;42.506;24.192;2023-04-29T01:20:33;95654.84;;;0.90;85.62
61961;BME280;47923;42.506;24.192;2023-04-29T01:22:59;95482.44;;;-0.33;86.13
61961;BME280;47923;42.506;24.192;2023-04-29T01:25:26;95612.16;;;0.49;87.13
61961;BME280;47923;42.506;24.192;2023-04-29T01:31:16;95649.19;;;0.78;86.14
61961;BME280;47923;42.506;24.192;2023-04-29T01:33:44;95641.28;;;0.73;84.42
61961;BME280;47923;42.506;24.192;2023-04-29T01:39:19;95649.91;;;0.83;83.99
61961;BME280;47923;42.506;24.192;2023-04-29T01:41:56;95668.47;;;0.89;84.09
61961;BME280;47923;42.506;24.192;2023-04-29T01:44:27;95654.34;;;0.88;84.45
61961;BME280;47923;42.506;24.192;2023-04-29T01:46:54;95646.88;;;0.90;85.35
61961;BME280;47923;42.506;24.192;2023-04-29T01:49:23;95651.91;;;0.92;85.65
61961;BME280;47923;42.506;24.192;2023-04-29T01:51:49;95189.53;;;-2.10;85.30
61961;BME280;47923;42.506;24.192;2023-04-29T01:54:14;95626.38;;;0.58;85.53
61961;BME280;47923;42.506;24.192;2023-04-29T01:56:43;95632.34;;;0.69;85.90
61961;BME280;47923;42.506;24.192;2023-04-29T01:59:09;95632.69;;;0.62;86.39
61961;BME280;47923;42.506;24.192;2023-04-29T02:01:35;95632.34;;;0.50;86.18
61961;BME280;47923;42.506;24.192;2023-04-29T02:04:00;95640.97;;;0.42;87.14
61961;BME280;47923;42.506;24.192;2023-04-29T02:06:26;95640.25;;;0.36;87.74
61961;BME280;47923;42.506;24.192;2023-04-29T02:08:52;95636.31;;;0.34;87.38
61961;BME280;47923;42.506;24.192;2023-04-29T02:11:18;95179.22;;;-2.79;85.73
61961;BME280;47923;42.506;24.192;2023-04-29T02:13:43;95636.16;;;0.44;86.16
61961;BME280;47923;42.506;24.192;2023-04-29T02:16:10;95652.19;;;0.39;86.97
61961;BME280;47923;42.506;24.192;2023-04-29T02:18:36;95521.09;;;-0.46;87.11
61961;BME280;47923;42.506;24.192;2023-04-29T02:21:02;95377.59;;;-1.49;87.10
61961;BME280;47923;42.506;24.192;2023-04-29T02:23:28;95479.16;;;-1.05;87.41
61961;BME280;47923;42.506;24.192;2023-04-29T02:25:54;95470.72;;;-0.89;87.29
61961;BME280;47923;42.506;24.192;2023-04-29T02:28:20;95390.19;;;-1.35;86.47
61961;BME280;47923;42.506;24.192;2023-04-29T02:30:48;95634.09;;;0.22;86.31
61961;BME280;47923;42.506;24.192;2023-04-29T02:33:14;95629.16;;;0.15;86.51
61961;BME280;47923;42.506;24.192;2023-04-29T02:35:40;95129.28;;;-3.09;86.99
61961;BME280;47923;42.506;24.192;2023-04-29T02:38:06;95448.22;;;-0.91;86.93
61961;BME280;47923;42.506;24.192;2023-04-29T02:40:31;95532.28;;;-0.30;86.64
61961;BME280;47923;42.506;24.192;2023-04-29T02:42:57;95627.00;;;0.17;87.05
61961;BME280;47923;42.506;24.192;2023-04-29T02:45:22;95613.25;;;-0.09;88.09
61961;BME280;47923;42.506;24.192;2023-04-29T02:47:48;95615.28;;;-0.19;88.21
61961;BME280;47923;42.506;24.192;2023-04-29T02:50:13;95648.03;;;-0.05;89.09
61961;BME280;47923;42.506;24.192;2023-04-29T02:52:39;95631.00;;;-0.04;89.07
61961;BME280;47923;42.506;24.192;2023-04-29T02:55:08;95485.41;;;-0.96;88.70
61961;BME280;47923;42.506;24.192;2023-04-29T02:57:33;95505.88;;;-0.78;88.59
61961;BME280;47923;42.506;24.192;2023-04-29T02:59:59;95630.34;;;-0.15;88.41
61961;BME280;47923;42.506;24.192;2023-04-29T03:02:28;95527.94;;;-0.82;88.29
61961;BME280;47923;42.506;24.192;2023-04-29T03:04:54;95611.16;;;-0.31;88.23
61961;BME280;47923;42.506;24.192;2023-04-29T03:07:19;95622.81;;;-0.26;88.59
61961;BME280;47923;42.506;24.192;2023-04-29T03:09:45;95102.53;;;-3.61;87.15
61961;BME280;47923;42.506;24.192;2023-04-29T03:12:10;95503.63;;;-1.14;87.10
61961;BME280;47923;42.506;24.192;2023-04-29T03:14:36;95260.13;;;-2.78;87.74
61961;BME280;47923;42.506;24.192;2023-04-29T03:17:01;94977.56;;;-4.77;88.30
61961;BME280;47923;42.506;24.192;2023-04-29T03:19:27;95633.03;;;-0.39;88.93
61961;BME280;47923;42.506;24.192;2023-04-29T03:21:52;95618.19;;;-0.40;88.91
61961;BME280;47923;42.506;24.192;2023-04-29T03:24:18;95505.38;;;-1.04;88.86
61961;BME280;47923;42.506;24.192;2023-04-29T03:26:43;95546.94;;;-0.75;88.43
61961;BME280;47923;42.506;24.192;2023-04-29T03:29:09;95423.41;;;-1.43;87.43
61961;BME280;47923;42.506;24.192;2023-04-29T03:31:35;95653.56;;;0.17;86.94
61961;BME280;47923;42.506;24.192;2023-04-29T03:34:00;95652.25;;;0.34;86.43
61961;BME280;47923;42.506;24.192;2023-04-29T03:36:25;95629.00;;;0.25;85.36
61961;BME280;47923;42.506;24.192;2023-04-29T03:38:52;95668.91;;;0.58;84.24
61961;BME280;47923;42.506;24.192;2023-04-29T03:41:19;95445.56;;;-0.91;81.40
61961;BME280;47923;42.506;24.192;2023-04-29T03:43:45;95659.03;;;0.77;80.89
61961;BME280;47923;42.506;24.192;2023-04-29T03:46:11;95571.63;;;0.24;81.45
61961;BME280;47923;42.506;24.192;2023-04-29T03:48:37;95622.00;;;0.67;81.55
61961;BME280;47923;42.506;24.192;2023-04-29T03:51:02;95671.28;;;1.11;81.96
61961;BME280;47923;42.506;24.192;2023-04-29T03:53:34;95585.44;;;0.59;81.79
61961;BME280;47923;42.506;24.192;2023-04-29T03:56:00;95446.91;;;-0.18;81.58
61961;BME280;47923;42.506;24.192;2023-04-29T03:58:26;95600.16;;;0.84;81.91
61961;BME280;47923;42.506;24.192;2023-04-29T04:00:52;95583.84;;;1.04;81.85
61961;BME280;47923;42.506;24.192;2023-04-29T04:03:19;95342.22;;;-0.31;80.02
61961;BME280;47923;42.506;24.192;2023-04-29T04:05:45;95232.69;;;-0.97;78.97
61961;BME280;47923;42.506;24.192;2023-04-29T04:08:10;95675.13;;;2.29;77.07
61961;BME280;47923;42.506;24.192;2023-04-29T04:10:36;95684.84;;;2.47;77.05
61961;BME280;47923;42.506;24.192;2023-04-29T04:13:02;95499.16;;;1.48;77.16
61961;BME280;47923;42.506;24.192;2023-04-29T04:15:27;95669.06;;;3.18;75.76
61961;BME280;47923;42.506;24.192;2023-04-29T04:17:53;95349.97;;;1.61;73.00
61961;BME280;47923;42.506;24.192;2023-04-29T04:20:18;95639.63;;;3.40;72.45
61961;BME280;47923;42.506;24.192;2023-04-29T04:22:51;95689.38;;;3.58;71.99
61961;BME280;47923;42.506;24.192;2023-04-29T04:25:19;95663.84;;;3.44;72.87
61961;BME280;47923;42.506;24.192;2023-04-29T04:27:44;95611.06;;;3.10;72.29
61961;BME280;47923;42.506;24.192;2023-04-29T04:30:10;95686.78;;;3.45;72.84
61961;BME280;47923;42.506;24.192;2023-04-29T04:32:36;95692.38;;;3.66;72.79
61961;BME280;47923;42.506;24.192;2023-04-29T04:35:03;95586.50;;;2.99;73.28
61961;BME280;47923;42.506;24.192;2023-04-29T04:37:28;95689.03;;;3.91;71.85
61961;BME280;47923;42.506;24.192;2023-04-29T04:39:54;95630.22;;;3.82;71.19
61961;BME280;47923;42.506;24.192;2023-04-29T04:42:21;95679.38;;;4.38;70.36
61961;BME280;47923;42.506;24.192;2023-04-29T04:44:46;95691.38;;;4.58;69.73
61961;BME280;47923;42.506;24.192;2023-04-29T04:47:12;95675.16;;;4.89;68.35
61961;BME280;47923;42.506;24.192;2023-04-29T04:49:40;95677.78;;;5.33;68.07
61961;BME280;47923;42.506;24.192;2023-04-29T04:52:06;95584.88;;;5.83;64.49
61961;BME280;47923;42.506;24.192;2023-04-29T04:54:31;95433.38;;;5.77;60.83
61961;BME280;47923;42.506;24.192;2023-04-29T04:56:57;95550.00;;;6.88;58.15
61961;BME280;47923;42.506;24.192;2023-04-29T04:59:23;95581.78;;;6.86;58.09
61961;BME280;47923;42.506;24.192;2023-04-29T05:01:48;95658.38;;;7.37;59.07
61961;BME280;47923;42.506;24.192;2023-04-29T05:04:13;95654.91;;;7.49;58.27
61961;BME280;47923;42.506;24.192;2023-04-29T05:06:39;95650.22;;;7.46;58.38
61961;BME280;47923;42.506;24.192;2023-04-29T05:09:05;95504.78;;;6.78;58.12
61961;BME280;47923;42.506;24.192;2023-04-29T05:11:30;95587.34;;;8.76;54.37
61961;BME280;47923;42.506;24.192;2023-04-29T05:13:56;95637.44;;;9.96;51.49
61961;BME280;47923;42.506;24.192;2023-04-29T05:16:21;95643.44;;;10.57;48.12
61961;BME280;47923;42.506;24.192;2023-04-29T05:18:47;95519.63;;;9.22;49.07
61961;BME280;47923;42.506;24.192;2023-04-29T05:21:13;95311.94;;;7.20;50.64
61961;BME280;47923;42.506;24.192;2023-04-29T05:23:38;95635.88;;;9.48;51.00
61961;BME280;47923;42.506;24.192;2023-04-29T05:26:04;95592.59;;;9.45;50.50
61961;BME280;47923;42.506;24.192;2023-04-29T05:28:29;95631.75;;;10.33;48.43
61961;BME280;47923;42.506;24.192;2023-04-29T05:30:55;95558.84;;;10.91;46.41
61961;BME280;47923;42.506;24.192;2023-04-29T05:33:21;95636.03;;;13.32;42.72
61961;BME280;47923;42.506;24.192;2023-04-29T05:35:47;95330.16;;;13.98;36.48
61961;BME280;47923;42.506;24.192;2023-04-29T05:38:12;95626.22;;;17.11;33.49
61961;BME280;47923;42.506;24.192;2023-04-29T05:40:38;95629.34;;;17.83;32.09
61961;BME280;47923;42.506;24.192;2023-04-29T05:43:04;95480.97;;;18.96;29.69
61961;BME280;47923;42.506;24.192;2023-04-29T05:45:30;95376.69;;;19.84;26.95
61961;BME280;47923;42.506;24.192;2023-04-29T05:47:55;95521.69;;;21.24;26.87
61961;BME280;47923;42.506;24.192;2023-04-29T05:50:21;95340.00;;;19.31;26.48
61961;BME280;47923;42.506;24.192;2023-04-29T05:52:47;95384.59;;;20.22;26.67
61961;BME280;47923;42.506;24.192;2023-04-29T05:55:13;95504.84;;;20.47;26.62
61961;BME280;47923;42.506;24.192;2023-04-29T05:57:38;95535.34;;;19.51;28.34
61961;BME280;47923;42.506;24.192;2023-04-29T06:00:04;95294.44;;;17.82;29.56
61961;BME280;47923;42.506;24.192;2023-04-29T06:02:31;95619.78;;;19.91;28.87
61961;BME280;47923;42.506;24.192;2023-04-29T06:04:58;95307.25;;;16.58;30.47
61961;BME280;47923;42.506;24.192;2023-04-29T06:07:23;95311.50;;;15.89;31.52
61961;BME280;47923;42.506;24.192;2023-04-29T06:09:49;95372.50;;;16.94;30.56
61961;BME280;47923;42.506;24.192;2023-04-29T06:12:15;95554.16;;;18.13;30.39
61961;BME280;47923;42.506;24.192;2023-04-29T06:14:40;95602.03;;;19.99;28.61
61961;BME280;47923;42.506;24.192;2023-04-29T06:17:06;95377.41;;;19.41;27.48
61961;BME280;47923;42.506;24.192;2023-04-29T06:19:32;95344.84;;;19.90;26.06
61961;BME280;47923;42.506;24.192;2023-04-29T06:21:58;95607.25;;;22.31;24.59
61961;BME280;47923;42.506;24.192;2023-04-29T06:24:24;95593.88;;;24.51;22.88
61961;BME280;47923;42.506;24.192;2023-04-29T06:26:49;95253.22;;;23.49;21.98
61961;BME280;47923;42.506;24.192;2023-04-29T06:29:15;95278.47;;;24.97;19.71
61961;BME280;47923;42.506;24.192;2023-04-29T06:31:41;95588.66;;;27.02;19.29
61961;BME280;47923;42.506;24.192;2023-04-29T06:34:06;95517.69;;;26.59;19.49
61961;BME280;47923;42.506;24.192;2023-04-29T06:36:32;95578.28;;;27.58;18.74
61961;BME280;47923;42.506;24.192;2023-04-29T06:38:57;95583.75;;;28.75;18.06
61961;BME280;47923;42.506;24.192;2023-04-29T06:41:23;95551.78;;;28.80;17.32
61961;BME280;47923;42.506;24.192;2023-04-29T06:43:49;95493.44;;;28.08;17.54
61961;BME280;47923;42.506;24.192;2023-04-29T06:46:14;95577.59;;;26.16;19.60
61961;BME280;47923;42.506;24.192;2023-04-29T06:48:40;95529.91;;;25.41;20.56
61961;BME280;47923;42.506;24.192;2023-04-29T06:51:06;95554.13;;;28.96;18.82
61961;BME280;47923;42.506;24.192;2023-04-29T06:53:32;95435.03;;;28.41;16.34
61961;BME280;47923;42.506;24.192;2023-04-29T06:55:57;95148.56;;;26.97;15.66
61961;BME280;47923;42.506;24.192;2023-04-29T06:58:23;95534.59;;;30.90;15.11
61961;BME280;47923;42.506;24.192;2023-04-29T07:00:49;95092.59;;;27.08;15.75
61961;BME280;47923;42.506;24.192;2023-04-29T07:03:16;95559.44;;;31.14;15.11
61961;BME280;47923;42.506;24.192;2023-04-29T07:05:43;95296.44;;;25.60;17.77
61961;BME280;47923;42.506;24.192;2023-04-29T07:08:12;95305.13;;;25.13;18.16
61961;BME280;47923;42.506;24.192;2023-04-29T07:10:38;95512.47;;;28.48;16.97
61961;BME280;47923;42.506;24.192;2023-04-29T07:13:04;95236.25;;;27.09;17.43
61961;BME280;47923;42.506;24.192;2023-04-29T07:15:32;95557.31;;;29.92;16.76
61961;BME280;47923;42.506;24.192;2023-04-29T07:17:58;95413.63;;;27.94;16.76
61961;BME280;47923;42.506;24.192;2023-04-29T07:20:25;95557.84;;;29.61;16.92
61961;BME280;47923;42.506;24.192;2023-04-29T07:22:51;95281.53;;;26.82;17.13
61961;BME280;47923;42.506;24.192;2023-04-29T07:25:17;95550.13;;;29.86;16.59
61961;BME280;47923;42.506;24.192;2023-04-29T07:27:42;95291.25;;;29.51;15.38
61961;BME280;47923;42.506;24.192;2023-04-29T07:30:08;95548.38;;;30.99;15.41
61961;BME280;47923;42.506;24.192;2023-04-29T07:32:34;95186.88;;;26.32;17.30
61961;BME280;47923;42.506;24.192;2023-04-29T07:34:59;95391.25;;;26.98;17.28
61961;BME280;47923;42.506;24.192;2023-04-29T07:37:25;95490.56;;;29.18;16.02
61961;BME280;47923;42.506;24.192;2023-04-29T07:39:51;95557.81;;;30.26;15.29
61961;BME280;47923;42.506;24.192;2023-04-29T07:42:17;95551.91;;;30.04;15.40
61961;BME280;47923;42.506;24.192;2023-04-29T07:44:43;95557.81;;;30.26;15.22
61961;BME280;47923;42.506;24.192;2023-04-29T07:47:12;95551.72;;;28.65;16.48
61961;BME280;47923;42.506;24.192;2023-04-29T07:49:37;95518.28;;;29.13;15.98
61961;BME280;47923;42.506;24.192;2023-04-29T07:52:07;95416.59;;;26.45;16.89
61961;BME280;47923;42.506;24.192;2023-04-29T07:54:35;95544.47;;;30.30;15.07
61961;BME280;47923;42.506;24.192;2023-04-29T07:57:01;95219.16;;;30.19;13.52
61961;BME280;47923;42.506;24.192;2023-04-29T07:59:28;95549.09;;;32.95;13.65
61961;BME280;47923;42.506;24.192;2023-04-29T08:01:54;95325.44;;;31.70;12.68
61961;BME280;47923;42.506;24.192;2023-04-29T08:04:20;95537.72;;;33.26;13.58
61961;BME280;47923;42.506;24.192;2023-04-29T08:06:45;95153.69;;;30.72;13.24
61961;BME280;47923;42.506;24.192;2023-04-29T08:09:11;95463.66;;;31.80;13.64
61961;BME280;47923;42.506;24.192;2023-04-29T08:11:37;95509.09;;;31.23;13.63
61961;BME280;47923;42.506;24.192;2023-04-29T08:14:04;95491.25;;;27.37;17.06
61961;BME280;47923;42.506;24.192;2023-04-29T08:16:30;95515.94;;;27.35;17.83
61961;BME280;47923;42.506;24.192;2023-04-29T08:18:58;95539.22;;;29.67;16.04
61961;BME280;47923;42.506;24.192;2023-04-29T08:21:52;95526.47;;;27.73;16.64
61961;BME280;47923;42.506;24.192;2023-04-29T08:24:25;95011.31;;;25.40;16.83
61961;BME280;47923;42.506;24.192;2023-04-29T08:27:21;95193.03;;;25.67;17.73
61961;BME280;47923;42.506;24.192;2023-04-29T08:33:07;95473.69;;;27.40;17.36
61961;BME280;47923;42.506;24.192;2023-04-29T08:35:42;95511.47;;;29.14;16.38
61961;BME280;47923;42.506;24.192;2023-04-29T08:38:13;95489.16;;;27.65;16.94
61961;BME280;47923;42.506;24.192;2023-04-29T08:43:36;95180.06;;;26.09;17.38
61961;BME280;47923;42.506;24.192;2023-04-29T08:46:35;95448.50;;;27.19;17.83
61961;BME280;47923;42.506;24.192;2023-04-29T08:49:04;95534.94;;;28.59;17.96
61961;BME280;47923;42.506;24.192;2023-04-29T08:51:30;95395.06;;;25.54;18.78
61961;BME280;47923;42.506;24.192;2023-04-29T08:53:57;95532.81;;;24.49;20.02
61961;BME280;47923;42.506;24.192;2023-04-29T08:56:23;95524.03;;;23.27;21.49
61961;BME280;47923;42.506;24.192;2023-04-29T08:58:52;95445.22;;;24.72;19.92
61961;BME280;47923;42.506;24.192;2023-04-29T09:01:23;95508.34;;;25.98;19.10
61961;BME280;47923;42.506;24.192;2023-04-29T09:03:49;95512.44;;;25.84;19.30
61961;BME280;47923;42.506;24.192;2023-04-29T09:06:17;95506.81;;;25.97;19.10
61961;BME280;47923;42.506;24.192;2023-04-29T09:08:44;95508.47;;;27.50;18.42
61961;BME280;47923;42.506;24.192;2023-04-29T09:11:10;95500.19;;;28.79;16.66
61961;BME280;47923;42.506;24.192;2023-04-29T09:13:37;95497.66;;;30.14;15.36
61961;BME280;47923;42.506;24.192;2023-04-29T09:16:02;95412.22;;;30.51;15.69
61961;BME280;47923;42.506;24.192;2023-04-29T09:18:41;95484.69;;;30.31;15.05
61961;BME280;47923;42.506;24.192;2023-04-29T09:21:27;95434.47;;;27.89;15.97
61961;BME280;47923;42.506;24.192;2023-04-29T09:23:57;95471.75;;;28.21;16.77
61961;BME280;47923;42.506;24.192;2023-04-29T09:26:23;95414.22;;;27.41;16.93
61961;BME280;47923;42.506;24.192;2023-04-29T09:29:05;95476.59;;;27.45;17.18
61961;BME280;47923;42.506;24.192;2023-04-29T09:31:31;95410.25;;;26.63;17.45
61961;BME280;47923;42.506;24.192;2023-04-29T09:33:56;95467.38;;;24.59;19.24
61961;BME280;47923;42.506;24.192;2023-04-29T09:36:50;95467.44;;;24.46;19.62
61961;BME280;47923;42.506;24.192;2023-04-29T09:39:22;95060.91;;;21.92;19.71
61961;BME280;47923;42.506;24.192;2023-04-29T09:44:17;95430.59;;;28.58;17.64
61961;BME280;47923;42.506;24.192;2023-04-29T09:46:57;95414.44;;;29.01;15.08
61961;BME280;47923;42.506;24.192;2023-04-29T09:49:28;95345.22;;;27.81;15.87
61961;BME280;47923;42.506;24.192;2023-04-29T09:52:02;95438.59;;;28.56;16.55
61961;BME280;47923;42.506;24.192;2023-04-29T09:54:29;95178.31;;;28.18;15.77
61961;BME280;47923;42.506;24.192;2023-04-29T09:56:58;95426.56;;;28.89;15.66
61961;BME280;47923;42.506;24.192;2023-04-29T09:59:24;94957.25;;;25.81;15.98
61961;BME280;47923;42.506;24.192;2023-04-29T10:01:53;95434.81;;;28.69;16.24
61961;BME280;47923;42.506;24.192;2023-04-29T10:04:20;95412.69;;;31.22;14.80
61961;BME280;47923;42.506;24.192;2023-04-29T10:06:51;95024.53;;;27.80;14.09
61961;BME280;47923;42.506;24.192;2023-04-29T10:09:17;95250.38;;;27.20;16.48
61961;BME280;47923;42.506;24.192;2023-04-29T10:11:45;95329.38;;;28.80;16.66
61961;BME280;47923;42.506;24.192;2023-04-29T10:14:15;95259.72;;;30.26;14.47
61961;BME280;47923;42.506;24.192;2023-04-29T10:16:46;95389.44;;;30.53;14.44
61961;BME280;47923;42.506;24.192;2023-04-29T10:19:26;95211.13;;;30.27;14.07
61961;BME280;47923;42.506;24.192;2023-04-29T10:21:57;95357.38;;;30.63;13.90
61961;BME280;47923;42.506;24.192;2023-04-29T10:24:25;95377.50;;;31.04;13.70
61961;BME280;47923;42.506;24.192;2023-04-29T10:26:52;95370.50;;;28.76;15.02
61961;BME280;47923;42.506;24.192;2023-04-29T10:29:21;95366.66;;;27.57;16.48
61961;BME280;47923;42.506;24.192;2023-04-29T10:31:48;95373.06;;;27.39;16.55
61961;BME280;47923;42.506;24.192;2023-04-29T10:34:16;95317.63;;;25.54;18.30
61961;BME280;47923;42.506;24.192;2023-04-29T10:36:42;95360.50;;;25.49;18.99
61961;BME280;47923;42.506;24.192;2023-04-29T10:39:14;95293.03;;;24.48;19.33
61961;BME280;47923;42.506;24.192;2023-04-29T10:41:45;95243.34;;;23.04;20.72
61961;BME280;47923;42.506;24.192;2023-04-29T10:44:13;95326.97;;;23.10;20.56
61961;BME280;47923;42.506;24.192;2023-04-29T10:46:39;95269.22;;;22.68;21.34
61961;BME280;47923;42.506;24.192;2023-04-29T10:49:05;95357.69;;;22.16;22.32
61961;BME280;47923;42.506;24.192;2023-04-29T10:51:33;95233.81;;;21.90;23.34
61961;BME280;47923;42.506;24.192;2023-04-29T10:54:00;95332.69;;;23.76;20.67
61961;BME280;47923;42.506;24.192;2023-04-29T10:56:40;95210.63;;;22.04;20.80
61961;BME280;47923;42.506;24.192;2023-04-29T10:59:13;95326.97;;;22.72;21.29
61961;BME280;47923;42.506;24.192;2023-04-29T11:01:50;95301.50;;;22.42;21.46
61961;BME280;47923;42.506;24.192;2023-04-29T11:04:19;95321.44;;;21.75;22.82
61961;BME280;47923;42.506;24.192;2023-04-29T11:06:49;95197.28;;;19.69;23.33
61961;BME280;47923;42.506;24.192;2023-04-29T11:09:23;95334.28;;;21.17;23.42
61961;BME280;47923;42.506;24.192;2023-04-29T11:12:02;95322.78;;;21.55;22.43
61961;BME280;47923;42.506;24.192;2023-04-29T11:19:39;95298.66;;;21.30;22.91
61961;BME280;47923;42.506;24.192;2023-04-29T11:24:53;94942.84;;;19.67;21.96
61961;BME280;47923;42.506;24.192;2023-04-29T11:27:20;95319.94;;;22.16;21.60
61961;BME280;47923;42.506;24.192;2023-04-29T11:29:50;95256.31;;;21.27;22.09
61961;BME280;47923;42.506;24.192;2023-04-29T11:32:19;95272.63;;;22.21;21.69
61961;BME280;47923;42.506;24.192;2023-04-29T11:34:46;95159.72;;;22.12;21.32
61961;BME280;47923;42.506;24.192;2023-04-29T11:37:11;95109.69;;;21.37;21.17
61961;BME280;47923;42.506;24.192;2023-04-29T11:39:37;95303.91;;;22.53;21.55
61961;BME280;47923;42.506;24.192;2023-04-29T11:42:06;94815.84;;;18.96;22.16
61961;BME280;47923;42.506;24.192;2023-04-29T11:44:35;95303.78;;;21.60;22.88
61961;BME280;47923;42.506;24.192;2023-04-29T11:47:02;95272.56;;;20.56;23.03
61961;BME280;47923;42.506;24.192;2023-04-29T11:49:32;95304.22;;;20.77;23.29
61961;BME280;47923;42.506;24.192;2023-04-29T11:51:58;95145.53;;;19.51;23.54
61961;BME280;47923;42.506;24.192;2023-04-29T11:54:28;95290.09;;;21.11;23.04
61961;BME280;47923;42.506;24.192;2023-04-29T11:56:57;95101.97;;;19.76;23.01
61961;BME280;47923;42.506;24.192;2023-04-29T11:59:23;94990.09;;;18.63;25.18
61961;BME280;47923;42.506;24.192;2023-04-29T12:01:49;95283.41;;;20.43;26.44
61961;BME280;47923;42.506;24.192;2023-04-29T12:04:18;95146.88;;;18.36;27.77
61961;BME280;47923;42.506;24.192;2023-04-29T12:06:45;94915.81;;;16.84;28.45
61961;BME280;47923;42.506;24.192;2023-04-29T12:09:13;94900.41;;;16.40;29.55
61961;BME280;47923;42.506;24.192;2023-04-29T12:11:41;94911.63;;;17.03;28.57
61961;BME280;47923;42.506;24.192;2023-04-29T12:14:07;95285.22;;;19.31;28.69
61961;BME280;47923;42.506;24.192;2023-04-29T12:16:32;94826.91;;;15.98;29.21
61961;BME280;47923;42.506;24.192;2023-04-29T12:18:59;95159.56;;;18.23;29.27
61961;BME280;47923;42.506;24.192;2023-04-29T12:21:25;95282.88;;;19.33;28.64
61961;BME280;47923;42.506;24.192;2023-04-29T12:23:52;95194.13;;;19.07;29.23
61961;BME280;47923;42.506;24.192;2023-04-29T12:26:17;95272.97;;;19.16;29.27
61961;BME280;47923;42.506;24.192;2023-04-29T12:28:47;95261.16;;;18.99;29.52
61961;BME280;47923;42.506;24.192;2023-04-29T12:31:14;95269.66;;;19.04;29.28
61961;BME280;47923;42.506;24.192;2023-04-29T12:33:43;95185.66;;;18.28;30.64
61961;BME280;47923;42.506;24.192;2023-04-29T12:36:15;95152.16;;;18.47;29.06
61961;BME280;47923;42.506;24.192;2023-04-29T12:38:46;95267.97;;;18.87;30.51
61961;BME280;47923;42.506;24.192;2023-04-29T12:41:12;95254.88;;;19.22;30.32
61961;BME280;47923;42.506;24.192;2023-04-29T12:43:41;95044.00;;;17.45;30.27
61961;BME280;47923;42.506;24.192;2023-04-29T12:46:08;95247.28;;;18.86;29.85
61961;BME280;47923;42.506;24.192;2023-04-29T12:48:36;95044.25;;;17.81;28.93
61961;BME280;47923;42.506;24.192;2023-04-29T12:51:11;95133.78;;;18.24;29.59
61961;BME280;47923;42.506;24.192;2023-04-29T12:53:37;95249.28;;;19.29;29.88
61961;BME280;47923;42.506;24.192;2023-04-29T12:56:04;94628.44;;;14.78;30.20
61961;BME280;47923;42.506;24.192;2023-04-29T12:58:30;95247.22;;;19.13;29.62
61961;BME280;47923;42.506;24.192;2023-04-29T13:00:56;95077.59;;;17.96;29.85
61961;BME280;47923;42.506;24.192;2023-04-29T13:03:22;95135.53;;;18.58;29.39
61961;BME280;47923;42.506;24.192;2023-04-29T13:05:48;95224.03;;;18.74;30.51
61961;BME280;47923;42.506;24.192;2023-04-29T13:08:16;95245.88;;;18.51;29.74
61961;BME280;47923;42.506;24.192;2023-04-29T13:10:42;95099.72;;;17.21;30.37
61961;BME280;47923;42.506;24.192;2023-04-29T13:13:07;95238.72;;;18.07;30.90
61961;BME280;47923;42.506;24.192;2023-04-29T13:15:36;94787.06;;;15.43;30.37
61961;BME280;47923;42.506;24.192;2023-04-29T13:18:03;95238.53;;;18.71;29.96
61961;BME280;47923;42.506;24.192;2023-04-29T13:20:29;95218.72;;;18.87;29.69
61961;BME280;47923;42.506;24.192;2023-04-29T13:22:54;95187.50;;;18.34;29.58